Time;durP1;ratioP1;P1;durP2;ratioP2;P2;SDS_P1;SDS_P2;PMS_P1;PMS_P2;Temp;Humidity;BMP_temperature;BMP_pressure;BME280_temperature;BME280_humidity;BME280_pressure;Samples;Min_cycle;Max_cycle;Signal;HPM_P1;HPM_P2
2023/10/26 00:01:55;;;;;;;1.10;0.90;;;;;;;;;;5002390;28;20179;-84
2023/10/26 00:04:21;;;;;;;1.17;1.07;;;;;;;;;;5008668;28;20188;-84
2023/10/26 00:06:48;;;;;;;1.47;1.10;;;;;;;;;;4990906;28;20718;-84
2023/10/26 00:09:14;;;;;;;1.40;1.20;;;;;;;;;;4991358;28;20214;-84
2023/10/26 00:11:40;;;;;;;1.43;1.30;;;;;;;;;;4983895;28;20187;-84
2023/10/26 00:14:06;;;;;;;1.40;1.30;;;;;;;;;;5004744;28;20212;-85
2023/10/26 00:16:32;;;;;;;1.20;1.10;;;;;;;;;;5005751;28;20211;-84
2023/10/26 00:18:59;;;;;;;2.80;1.40;;;;;;;;;;5005302;28;20877;-85
2023/10/26 00:21:25;;;;;;;2.10;1.20;;;;;;;;;;4990847;28;20192;-84
2023/10/26 00:23:51;;;;;;;1.40;1.30;;;;;;;;;;4992542;28;20203;-85
2023/10/26 00:26:18;;;;;;;1.77;1.40;;;;;;;;;;4990169;28;20222;-84
2023/10/26 00:28:49;;;;;;;1.30;1.20;;;;;;;;;;5008018;28;20217;-84
2023/10/26 00:31:15;;;;;;;1.40;1.30;;;;;;;;;;5006965;28;20195;-84
2023/10/26 00:33:41;;;;;;;2.53;1.87;;;;;;;;;;4973853;28;20553;-84
2023/10/26 00:36:08;;;;;;;1.97;1.40;;;;;;;;;;5007787;28;20208;-84
2023/10/26 00:38:34;;;;;;;1.37;1.27;;;;;;;;;;4988599;28;20581;-84
2023/10/26 00:41:00;;;;;;;1.50;1.30;;;;;;;;;;5010951;28;20650;-84
2023/10/26 00:43:26;;;;;;;1.40;1.30;;;;;;;;;;4992246;28;20188;-84
2023/10/26 00:45:53;;;;;;;2.80;2.07;;;;;;;;;;5008488;28;20198;-84
2023/10/26 00:48:23;;;;;;;2.80;2.20;;;;;;;;;;5005235;28;20658;-84
2023/10/26 00:50:49;;;;;;;3.30;2.00;;;;;;;;;;5008202;28;20293;-84
2023/10/26 00:53:16;;;;;;;3.00;1.80;;;;;;;;;;5006617;28;20187;-83
2023/10/26 00:55:44;;;;;;;2.53;2.10;;;;;;;;;;5003256;28;20671;-84
2023/10/26 00:58:11;;;;;;;2.17;1.53;;;;;;;;;;4989040;28;20187;-85
2023/10/26 01:00:37;;;;;;;3.50;1.40;;;;;;;;;;5005182;28;20297;-84
2023/10/26 01:03:04;;;;;;;2.30;1.70;;;;;;;;;;5006614;28;20183;-85
2023/10/26 01:05:30;;;;;;;1.83;1.60;;;;;;;;;;4991413;28;20270;-84
2023/10/26 01:07:56;;;;;;;2.10;1.60;;;;;;;;;;5006156;28;20193;-84
2023/10/26 01:10:23;;;;;;;1.87;1.50;;;;;;;;;;5011351;28;20211;-83
2023/10/26 01:12:50;;;;;;;2.33;1.20;;;;;;;;;;5007511;28;20193;-83
2023/10/26 01:15:16;;;;;;;1.27;1.13;;;;;;;;;;4973411;28;20271;-84
2023/10/26 01:17:42;;;;;;;3.13;1.20;;;;;;;;;;5001821;28;20206;-84
2023/10/26 01:20:09;;;;;;;1.00;1.00;;;;;;;;;;4993139;28;20309;-84
2023/10/26 01:22:35;;;;;;;1.87;1.13;;;;;;;;;;5008918;28;20187;-84
2023/10/26 01:25:01;;;;;;;1.20;1.10;;;;;;;;;;4995355;28;20178;-83
2023/10/26 01:27:27;;;;;;;1.10;1.10;;;;;;;;;;4990751;28;20437;-84
2023/10/26 01:29:55;;;;;;;1.37;1.20;;;;;;;;;;5008202;28;20282;-84
2023/10/26 01:32:21;;;;;;;1.20;1.10;;;;;;;;;;5006075;28;20221;-84
2023/10/26 01:34:47;;;;;;;1.83;1.30;;;;;;;;;;4989519;28;20226;-84
2023/10/26 01:37:13;;;;;;;1.20;1.20;;;;;;;;;;4990296;28;20329;-84
2023/10/26 01:39:40;;;;;;;1.30;1.20;;;;;;;;;;4990186;28;20290;-83
2023/10/26 01:42:10;;;;;;;1.30;1.20;;;;;;;;;;5008748;28;20576;-82
2023/10/26 01:44:37;;;;;;;1.70;1.40;;;;;;;;;;5008255;28;20187;-84
2023/10/26 01:47:03;;;;;;;1.07;1.07;;;;;;;;;;5010234;28;20274;-83
2023/10/26 01:49:29;;;;;;;1.30;1.20;;;;;;;;;;5002476;28;20234;-84
2023/10/26 01:51:56;;;;;;;1.63;1.40;;;;;;;;;;5008951;28;20603;-84
2023/10/26 01:54:22;;;;;;;1.50;1.40;;;;;;;;;;5006015;28;20201;-84
2023/10/26 01:56:48;;;;;;;2.23;1.57;;;;;;;;;;5009052;28;20238;-84
2023/10/26 01:59:14;;;;;;;1.73;1.30;;;;;;;;;;5017961;28;20208;-85
2023/10/26 02:01:41;;;;;;;2.70;1.30;;;;;;;;;;5018836;28;20184;-84
2023/10/26 02:04:07;;;;;;;2.20;1.20;;;;;;;;;;4990963;28;20209;-84
2023/10/26 02:06:33;;;;;;;2.13;1.33;;;;;;;;;;4993203;28;20184;-84
2023/10/26 02:08:59;;;;;;;1.43;1.33;;;;;;;;;;4991192;28;20218;-84
2023/10/26 02:11:25;;;;;;;1.67;1.57;;;;;;;;;;5004188;28;20244;-84
2023/10/26 02:13:51;;;;;;;1.73;1.53;;;;;;;;;;5006638;28;20223;-84
2023/10/26 02:16:20;;;;;;;1.70;1.60;;;;;;;;;;5000645;28;20224;-84
2023/10/26 02:18:46;;;;;;;1.50;1.40;;;;;;;;;;5002994;28;20246;-84
2023/10/26 02:21:12;;;;;;;1.67;1.47;;;;;;;;;;5004873;28;20225;-85
2023/10/26 02:23:43;;;;;;;1.63;1.53;;;;;;;;;;5006874;28;20175;-84
2023/10/26 02:26:09;;;;;;;1.50;1.40;;;;;;;;;;5004948;28;20557;-84
2023/10/26 02:28:35;;;;;;;2.40;1.40;;;;;;;;;;4991935;28;20195;-84
2023/10/26 02:31:01;;;;;;;1.47;1.37;;;;;;;;;;5005287;28;20287;-84
2023/10/26 02:33:28;;;;;;;2.30;1.37;;;;;;;;;;5004114;28;20204;-84
2023/10/26 02:35:54;;;;;;;1.80;1.70;;;;;;;;;;5008189;28;20229;-83
2023/10/26 02:38:20;;;;;;;2.47;1.77;;;;;;;;;;5006564;28;20191;-84
2023/10/26 02:40:46;;;;;;;2.73;1.50;;;;;;;;;;5001340;28;20294;-84
2023/10/26 02:43:12;;;;;;;1.73;1.63;;;;;;;;;;5006530;28;20183;-84
2023/10/26 02:45:40;;;;;;;2.77;1.90;;;;;;;;;;5010659;28;20175;-81
2023/10/26 02:48:06;;;;;;;3.13;1.83;;;;;;;;;;5004178;28;20190;-81
2023/10/26 02:50:35;;;;;;;2.00;1.80;;;;;;;;;;5007270;28;20223;-81
2023/10/26 02:53:01;;;;;;;1.70;1.60;;;;;;;;;;4980481;28;20195;-81
2023/10/26 02:55:27;;;;;;;2.00;1.80;;;;;;;;;;4993915;28;20199;-81
2023/10/26 02:57:53;;;;;;;1.80;1.70;;;;;;;;;;4991724;28;20617;-82
2023/10/26 03:00:20;;;;;;;3.33;1.60;;;;;;;;;;5009360;28;20203;-82
2023/10/26 03:02:46;;;;;;;1.80;1.50;;;;;;;;;;4993635;28;20183;-82
2023/10/26 03:05:12;;;;;;;3.43;1.73;;;;;;;;;;4992605;28;20191;-81
2023/10/26 03:07:39;;;;;;;2.33;1.70;;;;;;;;;;5008491;28;20559;-81
2023/10/26 03:10:05;;;;;;;2.20;1.90;;;;;;;;;;4997470;28;20628;-81
2023/10/26 03:12:31;;;;;;;2.17;1.97;;;;;;;;;;5007260;28;20192;-81
2023/10/26 03:14:57;;;;;;;1.87;1.77;;;;;;;;;;5009583;28;20321;-81
2023/10/26 03:17:24;;;;;;;2.23;2.00;;;;;;;;;;4978160;28;20212;-84
2023/10/26 03:19:50;;;;;;;2.10;1.90;;;;;;;;;;4992679;28;20207;-84
2023/10/26 03:22:16;;;;;;;1.93;1.80;;;;;;;;;;5010135;28;20187;-84
2023/10/26 03:24:43;;;;;;;2.10;2.00;;;;;;;;;;5007209;28;20184;-84
2023/10/26 03:27:09;;;;;;;3.10;1.90;;;;;;;;;;5006667;28;20199;-84
2023/10/26 03:29:35;;;;;;;1.97;1.80;;;;;;;;;;4979214;28;20211;-84
2023/10/26 03:32:02;;;;;;;2.90;2.13;;;;;;;;;;4991584;28;20772;-84
2023/10/26 03:34:28;;;;;;;3.03;2.10;;;;;;;;;;5007778;28;20198;-84
2023/10/26 03:36:54;;;;;;;2.40;1.73;;;;;;;;;;5007962;28;20303;-83
2023/10/26 03:39:20;;;;;;;1.83;1.60;;;;;;;;;;5000654;28;21851;-84
2023/10/26 03:41:47;;;;;;;2.40;1.90;;;;;;;;;;4995474;28;20191;-84
2023/10/26 03:44:13;;;;;;;1.70;1.60;;;;;;;;;;5005356;28;20213;-84
2023/10/26 03:46:39;;;;;;;1.70;1.60;;;;;;;;;;5008437;28;20210;-84
2023/10/26 03:49:06;;;;;;;3.77;1.67;;;;;;;;;;5009378;28;20276;-84
2023/10/26 03:51:32;;;;;;;1.50;1.30;;;;;;;;;;5008829;28;20631;-84
2023/10/26 03:53:58;;;;;;;1.67;1.30;;;;;;;;;;5005518;28;20195;-83
2023/10/26 03:56:25;;;;;;;1.73;1.60;;;;;;;;;;5001186;28;20207;-83
2023/10/26 03:58:51;;;;;;;2.67;1.50;;;;;;;;;;5010205;28;20199;-84
2023/10/26 04:01:17;;;;;;;1.60;1.50;;;;;;;;;;5005192;28;20865;-84
2023/10/26 04:03:43;;;;;;;1.40;1.30;;;;;;;;;;4992665;28;20204;-84
2023/10/26 04:06:09;;;;;;;1.80;1.60;;;;;;;;;;5026273;28;20662;-84
2023/10/26 04:08:37;;;;;;;1.98;1.58;;;;;;;;;;5007323;28;20402;-84
2023/10/26 04:11:03;;;;;;;1.60;1.50;;;;;;;;;;5000420;28;20187;-84
2023/10/26 04:13:30;;;;;;;1.70;1.60;;;;;;;;;;4990411;28;20682;-84
2023/10/26 04:16:03;;;;;;;1.60;1.50;;;;;;;;;;4994089;28;20207;-84
2023/10/26 04:18:30;;;;;;;1.93;1.63;;;;;;;;;;5008354;28;20187;-84
2023/10/26 04:20:56;;;;;;;3.23;1.50;;;;;;;;;;4992244;28;20627;-84
2023/10/26 04:23:22;;;;;;;2.00;1.80;;;;;;;;;;5009335;28;20737;-83
2023/10/26 04:25:48;;;;;;;1.50;1.40;;;;;;;;;;5009590;28;20201;-84
2023/10/26 04:28:15;;;;;;;2.20;1.70;;;;;;;;;;5007226;28;20210;-84
2023/10/26 04:30:43;;;;;;;1.63;1.53;;;;;;;;;;5005968;28;20210;-84
2023/10/26 04:33:09;;;;;;;1.43;1.33;;;;;;;;;;4994229;28;20218;-84
2023/10/26 04:35:35;;;;;;;3.57;1.70;;;;;;;;;;4993058;28;20237;-84
2023/10/26 04:38:01;;;;;;;1.90;1.70;;;;;;;;;;5016333;28;20175;-84
2023/10/26 04:40:27;;;;;;;2.63;1.63;;;;;;;;;;5010773;28;20229;-84
2023/10/26 04:42:53;;;;;;;2.27;1.60;;;;;;;;;;5009644;28;20496;-84
2023/10/26 04:45:19;;;;;;;2.67;1.67;;;;;;;;;;5009309;28;20183;-84
2023/10/26 04:47:45;;;;;;;2.23;1.53;;;;;;;;;;5010451;28;20234;-84
2023/10/26 04:50:12;;;;;;;1.90;1.50;;;;;;;;;;5007800;28;20237;-84
2023/10/26 04:52:38;;;;;;;2.37;1.77;;;;;;;;;;4990414;28;20724;-84
2023/10/26 04:55:05;;;;;;;1.60;1.50;;;;;;;;;;5007339;28;20261;-83
2023/10/26 04:57:31;;;;;;;3.43;1.60;;;;;;;;;;5008164;28;20266;-84
2023/10/26 04:59:57;;;;;;;1.70;1.60;;;;;;;;;;5005491;28;20222;-84
2023/10/26 05:02:23;;;;;;;1.60;1.50;;;;;;;;;;4989457;28;20199;-84
2023/10/26 05:04:49;;;;;;;1.63;1.40;;;;;;;;;;4995433;28;20187;-84
2023/10/26 05:07:15;;;;;;;2.13;1.60;;;;;;;;;;5003378;28;20785;-84
2023/10/26 05:09:41;;;;;;;1.60;1.50;;;;;;;;;;5008521;28;20214;-84
2023/10/26 05:12:07;;;;;;;1.70;1.60;;;;;;;;;;5008403;28;20282;-84
2023/10/26 05:14:34;;;;;;;1.87;1.77;;;;;;;;;;5007079;28;20191;-84
2023/10/26 05:17:00;;;;;;;1.70;1.60;;;;;;;;;;4974621;28;20298;-84
2023/10/26 05:19:26;;;;;;;1.60;1.50;;;;;;;;;;4989573;28;20584;-84
2023/10/26 05:21:52;;;;;;;1.60;1.50;;;;;;;;;;5006032;28;20195;-83
2023/10/26 05:24:18;;;;;;;2.10;1.90;;;;;;;;;;5008581;28;20210;-84
2023/10/26 05:26:44;;;;;;;2.20;1.70;;;;;;;;;;5025247;28;20193;-84
2023/10/26 05:29:10;;;;;;;2.47;1.90;;;;;;;;;;5004430;28;20581;-84
2023/10/26 05:31:36;;;;;;;2.13;1.97;;;;;;;;;;5006111;28;20183;-83
2023/10/26 05:34:02;;;;;;;2.63;2.43;;;;;;;;;;5004351;28;20189;-84
2023/10/26 05:36:29;;;;;;;2.50;2.17;;;;;;;;;;5007552;28;20349;-84
2023/10/26 05:38:55;;;;;;;3.30;2.80;;;;;;;;;;4991018;28;20286;-84
2023/10/26 05:41:21;;;;;;;3.10;2.80;;;;;;;;;;5005348;28;20194;-84
2023/10/26 05:43:47;;;;;;;3.20;2.90;;;;;;;;;;4991050;28;20314;-81
2023/10/26 05:46:14;;;;;;;2.80;2.60;;;;;;;;;;5010429;28;20586;-82
2023/10/26 05:48:40;;;;;;;3.15;2.88;;;;;;;;;;4972720;28;20838;-80
2023/10/26 05:51:07;;;;;;;3.10;2.80;;;;;;;;;;5006752;28;20254;-84
2023/10/26 05:53:34;;;;;;;3.07;2.80;;;;;;;;;;5011464;28;20183;-80
2023/10/26 05:56:00;;;;;;;2.67;2.47;;;;;;;;;;5007344;28;20215;-83
2023/10/26 05:58:26;;;;;;;2.90;2.70;;;;;;;;;;5012839;28;20185;-84
2023/10/26 06:00:53;;;;;;;3.70;2.37;;;;;;;;;;4975108;28;20210;-86
2023/10/26 06:03:19;;;;;;;2.77;2.30;;;;;;;;;;5010001;28;20230;-86
2023/10/26 06:05:47;;;;;;;2.67;2.47;;;;;;;;;;4990787;28;20179;-87
2023/10/26 06:08:13;;;;;;;2.97;2.60;;;;;;;;;;4999185;28;20179;-86
2023/10/26 06:10:40;;;;;;;4.03;2.43;;;;;;;;;;5014426;28;20254;-86
2023/10/26 06:13:09;;;;;;;3.53;2.40;;;;;;;;;;4976836;28;20179;-86
2023/10/26 06:15:36;;;;;;;2.93;2.63;;;;;;;;;;5007796;28;20194;-87
2023/10/26 06:18:02;;;;;;;3.20;2.53;;;;;;;;;;4980082;28;20187;-86
2023/10/26 06:20:28;;;;;;;2.83;2.63;;;;;;;;;;4997086;28;20206;-86
2023/10/26 06:22:55;;;;;;;3.27;2.60;;;;;;;;;;5014291;28;20191;-86
2023/10/26 06:25:21;;;;;;;3.97;2.70;;;;;;;;;;5014280;28;20187;-86
2023/10/26 06:27:48;;;;;;;3.10;2.83;;;;;;;;;;4999933;28;20214;-84
2023/10/26 06:30:15;;;;;;;3.10;2.80;;;;;;;;;;4989686;28;20207;-82
2023/10/26 06:32:41;;;;;;;3.47;3.07;;;;;;;;;;5019516;28;20180;-82
2023/10/26 06:35:07;;;;;;;3.30;2.90;;;;;;;;;;5000258;28;20206;-82
2023/10/26 06:37:33;;;;;;;3.33;2.80;;;;;;;;;;5032230;28;20247;-82
2023/10/26 06:40:00;;;;;;;3.00;2.50;;;;;;;;;;5016099;28;20689;-82
2023/10/26 06:42:26;;;;;;;3.10;2.53;;;;;;;;;;5014602;28;20653;-82
2023/10/26 06:44:58;;;;;;;3.43;2.77;;;;;;;;;;5014360;28;20183;-82
2023/10/26 06:47:24;;;;;;;3.20;2.90;;;;;;;;;;5015985;28;20737;-82
2023/10/26 06:49:50;;;;;;;3.33;2.97;;;;;;;;;;5015754;28;20609;-83
2023/10/26 06:52:16;;;;;;;3.20;2.90;;;;;;;;;;5015158;28;20183;-83
2023/10/26 06:54:43;;;;;;;4.20;3.20;;;;;;;;;;5014508;28;20267;-83
2023/10/26 06:57:09;;;;;;;3.77;3.00;;;;;;;;;;5000360;28;20306;-83
2023/10/26 06:59:35;;;;;;;3.03;2.80;;;;;;;;;;4998995;28;20210;-83
2023/10/26 07:02:01;;;;;;;3.07;2.77;;;;;;;;;;5014988;28;20183;-82
2023/10/26 07:04:27;;;;;;;3.40;2.67;;;;;;;;;;5012011;28;20268;-82
2023/10/26 07:06:53;;;;;;;3.00;2.80;;;;;;;;;;5006118;28;20187;-82
2023/10/26 07:09:19;;;;;;;2.97;2.77;;;;;;;;;;4999194;28;20218;-83
2023/10/26 07:11:46;;;;;;;3.80;3.00;;;;;;;;;;4984350;28;20202;-82
2023/10/26 07:14:12;;;;;;;3.80;2.90;;;;;;;;;;5015916;28;20670;-82
2023/10/26 07:16:38;;;;;;;3.40;3.10;;;;;;;;;;4981193;28;20221;-82
2023/10/26 07:19:04;;;;;;;4.47;3.17;;;;;;;;;;4995448;28;20199;-83
2023/10/26 07:21:33;;;;;;;4.60;3.23;;;;;;;;;;4998101;28;20202;-83
2023/10/26 07:24:00;;;;;;;5.07;3.40;;;;;;;;;;5013300;28;20179;-82
2023/10/26 07:26:26;;;;;;;4.03;3.63;;;;;;;;;;5014626;28;20194;-82
2023/10/26 07:28:53;;;;;;;3.77;3.47;;;;;;;;;;5028867;28;20218;-82
2023/10/26 07:31:22;;;;;;;3.53;3.23;;;;;;;;;;5014818;28;20358;-82
2023/10/26 07:33:49;;;;;;;6.00;3.93;;;;;;;;;;4998365;28;20618;-82
2023/10/26 07:36:15;;;;;;;4.50;4.10;;;;;;;;;;4997437;28;20214;-82
2023/10/26 07:38:41;;;;;;;5.47;4.20;;;;;;;;;;5031535;28;20654;-82
2023/10/26 07:41:08;;;;;;;8.97;5.00;;;;;;;;;;5007527;28;20184;-82
2023/10/26 07:43:37;;;;;;;6.87;5.60;;;;;;;;;;4997375;28;20176;-82
2023/10/26 07:46:04;;;;;;;6.17;5.20;;;;;;;;;;4998330;28;20187;-83
2023/10/26 07:48:35;;;;;;;9.70;6.40;;;;;;;;;;5012618;28;20206;-82
2023/10/26 07:51:02;;;;;;;8.30;5.27;;;;;;;;;;5009260;28;20202;-84
2023/10/26 07:53:28;;;;;;;4.90;3.93;;;;;;;;;;5007758;28;20183;-82
2023/10/26 07:55:57;;;;;;;6.33;4.50;;;;;;;;;;5015233;28;20209;-83
2023/10/26 07:58:25;;;;;;;4.10;3.60;;;;;;;;;;5013752;28;20180;-82
2023/10/26 08:00:51;;;;;;;3.57;3.13;;;;;;;;;;5014192;28;20299;-82
2023/10/26 08:03:17;;;;;;;3.43;3.13;;;;;;;;;;4996672;28;20179;-83
2023/10/26 08:05:43;;;;;;;3.47;3.10;;;;;;;;;;5015150;28;20719;-82
2023/10/26 08:08:09;;;;;;;6.20;4.13;;;;;;;;;;5013230;28;20199;-82
2023/10/26 08:10:37;;;;;;;6.03;4.37;;;;;;;;;;5011347;28;20673;-82
2023/10/26 08:13:03;;;;;;;3.93;3.40;;;;;;;;;;4982440;28;20275;-83
2023/10/26 08:15:29;;;;;;;3.27;2.97;;;;;;;;;;5010333;28;20176;-82
2023/10/26 08:17:56;;;;;;;2.87;2.57;;;;;;;;;;5009503;28;20207;-82
2023/10/26 08:20:22;;;;;;;3.87;3.30;;;;;;;;;;5013588;28;20211;-83
2023/10/26 08:22:49;;;;;;;3.43;3.13;;;;;;;;;;4996597;28;20230;-82
2023/10/26 08:25:16;;;;;;;3.00;2.70;;;;;;;;;;5013619;28;20713;-82
2023/10/26 08:27:42;;;;;;;2.97;2.47;;;;;;;;;;4998385;28;20187;-82
2023/10/26 08:30:09;;;;;;;2.50;2.30;;;;;;;;;;5013165;28;20212;-82
2023/10/26 08:32:35;;;;;;;2.40;2.20;;;;;;;;;;4997149;28;20323;-82
2023/10/26 08:35:01;;;;;;;4.07;3.37;;;;;;;;;;5013210;28;20686;-83
2023/10/26 08:37:27;;;;;;;5.37;3.30;;;;;;;;;;5010806;28;20323;-83
2023/10/26 08:39:54;;;;;;;3.17;2.87;;;;;;;;;;4986335;28;20601;-82
2023/10/26 08:42:20;;;;;;;3.03;2.50;;;;;;;;;;4996837;28;20592;-82
2023/10/26 08:44:46;;;;;;;2.30;2.10;;;;;;;;;;5014983;28;20556;-82
2023/10/26 08:47:14;;;;;;;1.90;1.80;;;;;;;;;;5013058;28;20181;-82
2023/10/26 08:49:43;;;;;;;3.43;2.10;;;;;;;;;;5010493;28;20235;-82
2023/10/26 08:52:09;;;;;;;6.53;5.00;;;;;;;;;;5018794;28;20237;-82
2023/10/26 08:54:36;;;;;;;5.50;3.80;;;;;;;;;;5015162;28;20194;-82
2023/10/26 08:57:08;;;;;;;4.00;2.67;;;;;;;;;;5000486;28;20215;-82
2023/10/26 08:59:35;;;;;;;3.13;2.40;;;;;;;;;;5013998;28;20270;-83
2023/10/26 09:02:02;;;;;;;4.87;2.30;;;;;;;;;;5012178;28;20177;-82
2023/10/26 09:04:28;;;;;;;3.17;2.47;;;;;;;;;;5007031;28;20218;-83
2023/10/26 09:06:54;;;;;;;3.57;2.60;;;;;;;;;;5013239;28;20181;-82
2023/10/26 09:09:21;;;;;;;2.77;2.47;;;;;;;;;;5012177;28;20272;-82
2023/10/26 09:11:50;;;;;;;3.10;2.60;;;;;;;;;;5015450;28;20204;-84
2023/10/26 09:14:17;;;;;;;3.50;2.30;;;;;;;;;;5010538;28;20269;-81
2023/10/26 09:16:45;;;;;;;2.30;2.07;;;;;;;;;;5014470;28;20231;-82
2023/10/26 09:19:12;;;;;;;4.17;2.77;;;;;;;;;;5027686;28;20253;-81
2023/10/26 09:21:50;;;;;;;3.97;3.30;;;;;;;;;;5016653;28;20662;-81
2023/10/26 09:24:21;;;;;;;3.40;3.10;;;;;;;;;;5016728;28;20187;-82
2023/10/26 09:26:48;;;;;;;4.20;3.73;;;;;;;;;;5011683;28;20631;-82
2023/10/26 09:29:14;;;;;;;4.53;3.20;;;;;;;;;;5014950;28;20210;-82
2023/10/26 09:32:01;;;;;;;4.50;3.50;;;;;;;;;;5014260;28;20187;-82
2023/10/26 09:34:27;;;;;;;3.23;2.93;;;;;;;;;;5013293;28;20179;-81
2023/10/26 09:37:19;;;;;;;4.23;3.60;;;;;;;;;;5013327;28;20207;-81
2023/10/26 09:39:46;;;;;;;5.73;3.30;;;;;;;;;;5005911;28;20211;-80
2023/10/26 09:42:13;;;;;;;5.10;3.13;;;;;;;;;;5014874;28;20607;-81
2023/10/26 09:44:39;;;;;;;3.50;3.20;;;;;;;;;;5005348;28;20218;-81
2023/10/26 09:47:06;;;;;;;3.67;3.20;;;;;;;;;;5016743;28;20422;-81
2023/10/26 09:49:33;;;;;;;3.70;2.80;;;;;;;;;;5012178;28;21564;-80
2023/10/26 09:51:59;;;;;;;3.40;3.10;;;;;;;;;;5010041;28;20539;-81
2023/10/26 09:54:28;;;;;;;4.70;3.30;;;;;;;;;;5014012;28;20228;-82
2023/10/26 09:57:04;;;;;;;3.93;3.03;;;;;;;;;;4990753;28;20208;-81
2023/10/26 09:59:31;;;;;;;3.40;3.10;;;;;;;;;;5012049;28;20237;-81
2023/10/26 10:01:57;;;;;;;4.03;2.80;;;;;;;;;;5010904;28;20175;-81
2023/10/26 10:04:37;;;;;;;3.93;3.43;;;;;;;;;;5008295;28;20179;-80
2023/10/26 10:07:04;;;;;;;3.40;3.10;;;;;;;;;;5011671;28;20178;-82
2023/10/26 10:09:30;;;;;;;3.57;2.93;;;;;;;;;;5001533;28;20215;-82
2023/10/26 10:12:23;;;;;;;4.23;3.77;;;;;;;;;;4997201;28;20419;-81
2023/10/26 10:14:50;;;;;;;5.20;3.60;;;;;;;;;;5007576;28;20210;-78
2023/10/26 10:17:21;;;;;;;4.87;4.17;;;;;;;;;;5011399;28;20663;-80
2023/10/26 10:19:48;;;;;;;7.90;4.50;;;;;;;;;;5012097;28;20567;-80
2023/10/26 10:22:32;;;;;;;4.70;4.30;;;;;;;;;;5013092;28;20175;-81
2023/10/26 10:24:59;;;;;;;6.33;4.10;;;;;;;;;;5027567;28;20273;-80
2023/10/26 10:27:25;;;;;;;4.60;4.13;;;;;;;;;;5009588;28;20196;-80
2023/10/26 10:29:51;;;;;;;4.77;4.23;;;;;;;;;;5007374;28;20238;-80
2023/10/26 10:32:36;;;;;;;9.80;7.00;;;;;;;;;;5011435;28;20290;-81
2023/10/26 10:35:05;;;;;;;10.47;7.90;;;;;;;;;;5009648;28;20659;-80
2023/10/26 10:37:31;;;;;;;7.00;5.50;;;;;;;;;;5010730;28;20233;-80
2023/10/26 10:40:09;;;;;;;5.20;4.53;;;;;;;;;;5011935;28;20196;-80
2023/10/26 10:42:36;;;;;;;6.67;4.90;;;;;;;;;;5013625;28;20198;-80
2023/10/26 10:45:03;;;;;;;6.83;5.97;;;;;;;;;;5006491;28;20185;-80
2023/10/26 10:47:30;;;;;;;6.30;5.10;;;;;;;;;;5004589;28;20192;-80
2023/10/26 10:50:13;;;;;;;7.87;5.77;;;;;;;;;;5009621;28;20215;-80
2023/10/26 10:52:40;;;;;;;7.37;5.07;;;;;;;;;;5011887;28;20195;-80
2023/10/26 10:55:07;;;;;;;6.43;5.30;;;;;;;;;;5012747;28;20180;-81
2023/10/26 10:57:33;;;;;;;6.17;4.37;;;;;;;;;;5011460;28;20220;-81
2023/10/26 10:59:59;;;;;;;4.57;3.70;;;;;;;;;;5005699;28;20203;-80
2023/10/26 11:02:25;;;;;;;3.30;3.00;;;;;;;;;;5012998;28;20188;-81
2023/10/26 11:04:52;;;;;;;5.30;3.20;;;;;;;;;;5015667;28;20201;-80
2023/10/26 11:07:23;;;;;;;4.97;2.47;;;;;;;;;;5016289;28;20195;-81
2023/10/26 11:09:50;;;;;;;2.47;2.27;;;;;;;;;;5008454;28;20211;-80
2023/10/26 11:12:16;;;;;;;2.80;2.20;;;;;;;;;;5019720;28;20778;-80
2023/10/26 11:14:52;;;;;;;3.50;2.40;;;;;;;;;;5018844;28;20187;-81
2023/10/26 11:17:19;;;;;;;3.23;2.30;;;;;;;;;;5016723;28;20203;-81
2023/10/26 11:19:45;;;;;;;2.87;2.20;;;;;;;;;;4999274;28;20218;-81
2023/10/26 11:22:15;;;;;;;2.57;2.30;;;;;;;;;;5014379;28;20189;-81
2023/10/26 11:24:42;;;;;;;2.50;2.30;;;;;;;;;;5016436;28;20195;-81
2023/10/26 11:27:15;;;;;;;2.13;1.93;;;;;;;;;;5016534;28;20266;-80
2023/10/26 11:29:42;;;;;;;3.80;2.20;;;;;;;;;;5009647;28;20215;-81
2023/10/26 11:32:24;;;;;;;3.13;2.07;;;;;;;;;;5003943;28;20187;-80
2023/10/26 11:35:06;;;;;;;3.53;2.03;;;;;;;;;;5010384;28;20647;-80
2023/10/26 11:37:36;;;;;;;3.30;1.93;;;;;;;;;;5015679;28;20266;-81
2023/10/26 11:40:07;;;;;;;3.57;2.30;;;;;;;;;;5015942;28;20248;-80
2023/10/26 11:43:12;;;;;;;6.97;2.40;;;;;;;;;;5000914;28;20182;-80
2023/10/26 11:45:56;;;;;;;2.83;2.37;;;;;;;;;;4939272;29;20204;-80
2023/10/26 11:48:31;;;;;;;3.97;2.80;;;;;;;;;;4954190;28;20665;-80
2023/10/26 11:50:57;;;;;;;3.97;2.70;;;;;;;;;;4986285;28;20214;-80
2023/10/26 11:53:24;;;;;;;4.40;2.90;;;;;;;;;;5011396;28;20191;-80
2023/10/26 11:55:51;;;;;;;3.47;2.80;;;;;;;;;;5014019;28;20196;-80
2023/10/26 11:58:17;;;;;;;3.90;3.50;;;;;;;;;;5004536;28;20191;-80
2023/10/26 12:00:43;;;;;;;3.43;2.63;;;;;;;;;;5006526;28;20194;-80
2023/10/26 12:03:10;;;;;;;4.93;2.67;;;;;;;;;;4995631;28;20235;-80
2023/10/26 12:05:36;;;;;;;4.63;3.10;;;;;;;;;;4999521;28;20187;-79
2023/10/26 12:08:03;;;;;;;3.30;2.60;;;;;;;;;;5015176;28;20670;-80
2023/10/26 12:10:29;;;;;;;3.33;2.63;;;;;;;;;;5007723;28;20211;-80
2023/10/26 12:12:58;;;;;;;3.20;2.40;;;;;;;;;;5014011;28;20213;-80
2023/10/26 12:15:24;;;;;;;2.37;2.17;;;;;;;;;;5007820;28;20183;-80
2023/10/26 12:17:51;;;;;;;3.87;2.83;;;;;;;;;;4993796;28;20215;-81
2023/10/26 12:20:17;;;;;;;3.03;2.30;;;;;;;;;;5013962;28;20210;-81
2023/10/26 12:22:43;;;;;;;2.73;2.00;;;;;;;;;;5000003;28;20633;-80
2023/10/26 12:25:13;;;;;;;4.03;2.30;;;;;;;;;;5008598;28;20689;-80
2023/10/26 12:27:40;;;;;;;4.57;2.00;;;;;;;;;;5005701;28;20222;-80
2023/10/26 12:30:06;;;;;;;2.57;1.93;;;;;;;;;;5005412;28;20218;-80
2023/10/26 12:32:32;;;;;;;3.23;2.20;;;;;;;;;;5011258;28;20190;-81
2023/10/26 12:34:58;;;;;;;2.37;2.00;;;;;;;;;;5012404;28;20179;-80
2023/10/26 12:37:24;;;;;;;2.40;1.90;;;;;;;;;;5005665;28;20222;-80
2023/10/26 12:39:50;;;;;;;2.50;2.00;;;;;;;;;;5013865;28;20203;-80
2023/10/26 12:42:17;;;;;;;2.67;2.10;;;;;;;;;;5015246;28;20210;-81
2023/10/26 12:44:43;;;;;;;2.20;2.00;;;;;;;;;;5012200;28;20187;-81
2023/10/26 12:47:10;;;;;;;2.73;2.20;;;;;;;;;;4996161;28;20191;-81
2023/10/26 12:49:36;;;;;;;2.53;2.00;;;;;;;;;;5007919;28;20211;-80
2023/10/26 12:52:04;;;;;;;3.60;2.27;;;;;;;;;;4996298;28;20203;-80
2023/10/26 12:54:32;;;;;;;2.87;2.27;;;;;;;;;;5011625;28;20191;-81
2023/10/26 12:56:58;;;;;;;3.13;2.50;;;;;;;;;;5009059;28;20215;-81
2023/10/26 12:59:24;;;;;;;3.37;2.50;;;;;;;;;;5009922;28;20257;-81
2023/10/26 13:01:50;;;;;;;2.50;2.30;;;;;;;;;;5012623;28;20282;-81
2023/10/26 13:04:16;;;;;;;2.40;2.20;;;;;;;;;;5001361;28;20199;-81
2023/10/26 13:06:42;;;;;;;3.00;2.20;;;;;;;;;;5006527;28;20189;-80
2023/10/26 13:09:09;;;;;;;2.30;2.00;;;;;;;;;;5014434;28;20375;-80
2023/10/26 13:11:35;;;;;;;4.03;2.50;;;;;;;;;;5010903;28;20187;-80
2023/10/26 13:14:01;;;;;;;3.03;2.50;;;;;;;;;;5007444;28;20187;-81
2023/10/26 13:16:27;;;;;;;4.80;3.90;;;;;;;;;;4999592;28;20354;-81
2023/10/26 13:18:53;;;;;;;4.73;3.40;;;;;;;;;;5014650;28;20199;-81
2023/10/26 13:21:19;;;;;;;4.80;2.70;;;;;;;;;;5013696;28;20215;-80
2023/10/26 13:23:45;;;;;;;4.77;2.37;;;;;;;;;;5012007;28;20190;-80
2023/10/26 13:26:11;;;;;;;4.77;2.30;;;;;;;;;;5014367;28;20183;-80
2023/10/26 13:28:38;;;;;;;2.40;2.20;;;;;;;;;;5010023;28;20232;-81
2023/10/26 13:31:06;;;;;;;5.30;2.70;;;;;;;;;;5004427;28;20199;-80
2023/10/26 13:33:32;;;;;;;4.20;2.30;;;;;;;;;;5010164;28;20195;-81
2023/10/26 13:35:58;;;;;;;2.70;2.00;;;;;;;;;;5008249;28;20187;-80
2023/10/26 13:38:25;;;;;;;2.53;1.80;;;;;;;;;;5001043;28;20191;-80
2023/10/26 13:40:51;;;;;;;5.10;2.97;;;;;;;;;;5008075;28;20199;-79
2023/10/26 13:43:17;;;;;;;3.47;2.10;;;;;;;;;;5006856;28;20639;-80
2023/10/26 13:45:44;;;;;;;3.83;2.20;;;;;;;;;;5012981;28;20183;-81
2023/10/26 13:48:10;;;;;;;4.03;2.37;;;;;;;;;;5005357;28;20191;-80
2023/10/26 13:50:40;;;;;;;3.30;2.90;;;;;;;;;;5010640;28;20202;-82
2023/10/26 13:53:07;;;;;;;4.13;2.93;;;;;;;;;;5011407;28;20237;-82
2023/10/26 13:55:37;;;;;;;5.83;3.10;;;;;;;;;;4992447;28;20186;-82
2023/10/26 13:58:05;;;;;;;5.63;2.87;;;;;;;;;;5010677;28;20217;-83
2023/10/26 14:00:32;;;;;;;4.43;2.70;;;;;;;;;;5009789;28;20218;-83
2023/10/26 14:02:59;;;;;;;5.37;2.50;;;;;;;;;;5009143;28;20179;-83
2023/10/26 14:05:25;;;;;;;4.43;2.40;;;;;;;;;;5009196;28;20191;-83
2023/10/26 14:07:51;;;;;;;4.00;2.20;;;;;;;;;;5004227;28;20786;-83
2023/10/26 14:10:19;;;;;;;4.17;2.50;;;;;;;;;;5011153;28;20210;-83
2023/10/26 14:12:45;;;;;;;4.70;2.43;;;;;;;;;;5011622;28;20183;-83
2023/10/26 14:15:11;;;;;;;5.60;2.87;;;;;;;;;;5013703;28;20187;-83
2023/10/26 14:17:39;;;;;;;6.07;2.60;;;;;;;;;;5009480;28;20663;-83
2023/10/26 14:20:05;;;;;;;4.27;2.87;;;;;;;;;;4985303;28;20211;-82
2023/10/26 14:22:33;;;;;;;4.10;2.70;;;;;;;;;;4980685;28;20206;-83
2023/10/26 14:24:59;;;;;;;4.27;2.73;;;;;;;;;;5013757;28;20266;-83
2023/10/26 14:27:25;;;;;;;5.00;2.80;;;;;;;;;;5012438;28;20185;-82
2023/10/26 14:29:52;;;;;;;5.40;2.70;;;;;;;;;;5010502;28;20234;-82
2023/10/26 14:32:18;;;;;;;4.57;2.50;;;;;;;;;;4999597;28;20194;-83
2023/10/26 14:34:44;;;;;;;6.23;2.93;;;;;;;;;;5010023;28;20191;-83
2023/10/26 14:37:11;;;;;;;3.50;2.57;;;;;;;;;;4996996;28;20203;-83
2023/10/26 14:39:38;;;;;;;5.53;2.87;;;;;;;;;;5015770;28;20726;-83
2023/10/26 14:42:04;;;;;;;4.40;2.73;;;;;;;;;;5018008;28;20183;-83
2023/10/26 14:44:30;;;;;;;5.73;3.03;;;;;;;;;;5001575;28;20183;-84